sensor_id;sensor_type;location;lat;lon;timestamp;P1;durP1;ratioP1;P2;durP2;ratioP2
80748;SDS011;70145;53.746;9.970;2023-12-20T00:00:58;9.13;;;1.38;;
80748;SDS011;70145;53.746;9.970;2023-12-20T00:03:24;6.63;;;1.70;;
80748;SDS011;70145;53.746;9.970;2023-12-20T00:05:49;5.43;;;1.20;;
80748;SDS011;70145;53.746;9.970;2023-12-20T00:08:15;6.07;;;1.40;;
80748;SDS011;70145;53.746;9.970;2023-12-20T00:10:41;7.22;;;1.52;;
80748;SDS011;70145;53.746;9.970;2023-12-20T00:13:06;6.80;;;2.63;;
80748;SDS011;70145;53.746;9.970;2023-12-20T00:15:32;6.03;;;1.38;;
80748;SDS011;70145;53.746;9.970;2023-12-20T00:17:58;3.55;;;1.20;;
80748;SDS011;70145;53.746;9.970;2023-12-20T00:20:23;4.13;;;1.10;;
80748;SDS011;70145;53.746;9.970;2023-12-20T00:22:49;6.87;;;1.27;;
80748;SDS011;70145;53.746;9.970;2023-12-20T00:25:14;4.97;;;1.40;;
80748;SDS011;70145;53.746;9.970;2023-12-20T00:27:40;3.60;;;0.75;;
80748;SDS011;70145;53.746;9.970;2023-12-20T00:30:05;7.10;;;1.30;;
80748;SDS011;70145;53.746;9.970;2023-12-20T00:32:31;6.70;;;0.93;;
80748;SDS011;70145;53.746;9.970;2023-12-20T00:34:56;6.47;;;0.93;;
80748;SDS011;70145;53.746;9.970;2023-12-20T00:37:22;4.90;;;0.90;;
80748;SDS011;70145;53.746;9.970;2023-12-20T00:39:47;5.60;;;0.90;;
80748;SDS011;70145;53.746;9.970;2023-12-20T00:42:12;6.13;;;0.95;;
80748;SDS011;70145;53.746;9.970;2023-12-20T00:44:38;11.53;;;1.50;;
80748;SDS011;70145;53.746;9.970;2023-12-20T00:47:03;5.82;;;0.95;;
80748;SDS011;70145;53.746;9.970;2023-12-20T00:49:29;4.35;;;0.65;;
80748;SDS011;70145;53.746;9.970;2023-12-20T00:51:54;4.63;;;0.80;;
80748;SDS011;70145;53.746;9.970;2023-12-20T00:54:19;6.85;;;1.20;;
80748;SDS011;70145;53.746;9.970;2023-12-20T00:56:45;6.90;;;1.42;;
80748;SDS011;70145;53.746;9.970;2023-12-20T00:59:10;8.73;;;0.98;;
80748;SDS011;70145;53.746;9.970;2023-12-20T01:01:35;5.72;;;0.63;;
80748;SDS011;70145;53.746;9.970;2023-12-20T01:04:01;3.85;;;0.50;;
80748;SDS011;70145;53.746;9.970;2023-12-20T01:06:26;6.20;;;1.30;;
80748;SDS011;70145;53.746;9.970;2023-12-20T01:08:51;7.32;;;0.82;;
80748;SDS011;70145;53.746;9.970;2023-12-20T01:11:17;7.63;;;1.30;;
80748;SDS011;70145;53.746;9.970;2023-12-20T01:13:42;7.05;;;1.05;;
80748;SDS011;70145;53.746;9.970;2023-12-20T01:16:09;5.60;;;0.80;;
80748;SDS011;70145;53.746;9.970;2023-12-20T01:18:36;6.18;;;1.05;;
80748;SDS011;70145;53.746;9.970;2023-12-20T01:21:02;6.83;;;1.20;;
80748;SDS011;70145;53.746;9.970;2023-12-20T01:23:30;5.30;;;0.77;;
80748;SDS011;70145;53.746;9.970;2023-12-20T01:25:56;5.97;;;1.23;;
80748;SDS011;70145;53.746;9.970;2023-12-20T01:28:24;4.00;;;0.88;;
80748;SDS011;70145;53.746;9.970;2023-12-20T01:30:50;4.28;;;0.68;;
80748;SDS011;70145;53.746;9.970;2023-12-20T01:33:15;5.93;;;0.90;;
80748;SDS011;70145;53.746;9.970;2023-12-20T01:35:40;3.60;;;0.60;;
80748;SDS011;70145;53.746;9.970;2023-12-20T01:38:05;5.90;;;1.45;;
80748;SDS011;70145;53.746;9.970;2023-12-20T01:40:31;5.35;;;0.93;;
80748;SDS011;70145;53.746;9.970;2023-12-20T01:42:57;5.88;;;0.55;;
80748;SDS011;70145;53.746;9.970;2023-12-20T01:45:27;7.32;;;1.80;;
80748;SDS011;70145;53.746;9.970;2023-12-20T01:47:53;6.50;;;1.23;;
80748;SDS011;70145;53.746;9.970;2023-12-20T01:50:19;3.53;;;1.17;;
80748;SDS011;70145;53.746;9.970;2023-12-20T01:52:46;3.00;;;0.80;;
80748;SDS011;70145;53.746;9.970;2023-12-20T01:55:11;4.45;;;0.88;;
80748;SDS011;70145;53.746;9.970;2023-12-20T01:57:40;5.18;;;1.10;;
80748;SDS011;70145;53.746;9.970;2023-12-20T02:00:06;5.53;;;0.88;;
80748;SDS011;70145;53.746;9.970;2023-12-20T02:02:34;5.53;;;0.70;;
80748;SDS011;70145;53.746;9.970;2023-12-20T02:05:03;5.80;;;0.95;;
80748;SDS011;70145;53.746;9.970;2023-12-20T02:07:30;4.65;;;0.73;;
80748;SDS011;70145;53.746;9.970;2023-12-20T02:09:56;6.18;;;1.35;;
80748;SDS011;70145;53.746;9.970;2023-12-20T02:12:21;4.82;;;1.70;;
80748;SDS011;70145;53.746;9.970;2023-12-20T02:14:47;6.72;;;1.17;;
80748;SDS011;70145;53.746;9.970;2023-12-20T02:17:12;6.43;;;0.97;;
80748;SDS011;70145;53.746;9.970;2023-12-20T02:19:37;6.72;;;0.90;;
80748;SDS011;70145;53.746;9.970;2023-12-20T02:22:06;2.72;;;0.82;;
80748;SDS011;70145;53.746;9.970;2023-12-20T02:24:35;5.18;;;0.90;;
80748;SDS011;70145;53.746;9.970;2023-12-20T02:27:01;5.72;;;1.13;;
80748;SDS011;70145;53.746;9.970;2023-12-20T02:29:26;10.15;;;1.25;;
80748;SDS011;70145;53.746;9.970;2023-12-20T02:31:52;4.55;;;0.85;;
80748;SDS011;70145;53.746;9.970;2023-12-20T02:34:17;5.20;;;1.40;;
80748;SDS011;70145;53.746;9.970;2023-12-20T02:36:42;5.40;;;0.73;;
80748;SDS011;70145;53.746;9.970;2023-12-20T02:39:08;2.77;;;0.63;;
80748;SDS011;70145;53.746;9.970;2023-12-20T02:41:33;5.37;;;0.80;;
80748;SDS011;70145;53.746;9.970;2023-12-20T02:43:58;3.95;;;0.70;;
80748;SDS011;70145;53.746;9.970;2023-12-20T02:46:24;3.67;;;0.67;;
80748;SDS011;70145;53.746;9.970;2023-12-20T02:48:49;5.03;;;0.50;;
80748;SDS011;70145;53.746;9.970;2023-12-20T02:51:14;6.53;;;0.70;;
80748;SDS011;70145;53.746;9.970;2023-12-20T02:53:40;6.33;;;1.97;;
80748;SDS011;70145;53.746;9.970;2023-12-20T02:56:05;5.40;;;1.17;;
80748;SDS011;70145;53.746;9.970;2023-12-20T02:58:30;8.48;;;0.80;;
80748;SDS011;70145;53.746;9.970;2023-12-20T03:00:56;3.47;;;0.80;;
80748;SDS011;70145;53.746;9.970;2023-12-20T03:03:21;6.47;;;0.83;;
80748;SDS011;70145;53.746;9.970;2023-12-20T03:05:47;6.43;;;1.38;;
80748;SDS011;70145;53.746;9.970;2023-12-20T03:08:12;3.40;;;0.52;;
80748;SDS011;70145;53.746;9.970;2023-12-20T03:10:37;5.40;;;0.75;;
80748;SDS011;70145;53.746;9.970;2023-12-20T03:13:02;4.93;;;0.70;;
80748;SDS011;70145;53.746;9.970;2023-12-20T03:15:28;5.50;;;1.25;;
80748;SDS011;70145;53.746;9.970;2023-12-20T03:17:53;3.67;;;1.10;;
80748;SDS011;70145;53.746;9.970;2023-12-20T03:20:18;10.80;;;2.90;;
80748;SDS011;70145;53.746;9.970;2023-12-20T03:22:44;5.30;;;1.30;;
80748;SDS011;70145;53.746;9.970;2023-12-20T03:25:09;8.13;;;1.20;;
80748;SDS011;70145;53.746;9.970;2023-12-20T03:27:36;7.80;;;1.33;;
80748;SDS011;70145;53.746;9.970;2023-12-20T03:30:03;4.82;;;1.20;;
80748;SDS011;70145;53.746;9.970;2023-12-20T03:32:29;5.65;;;1.00;;
80748;SDS011;70145;53.746;9.970;2023-12-20T03:34:54;8.05;;;1.02;;
80748;SDS011;70145;53.746;9.970;2023-12-20T03:37:21;9.83;;;1.73;;
80748;SDS011;70145;53.746;9.970;2023-12-20T03:39:46;6.60;;;1.10;;
80748;SDS011;70145;53.746;9.970;2023-12-20T03:42:12;4.40;;;0.70;;
80748;SDS011;70145;53.746;9.970;2023-12-20T03:44:38;4.00;;;0.98;;
80748;SDS011;70145;53.746;9.970;2023-12-20T03:47:04;7.30;;;0.95;;
80748;SDS011;70145;53.746;9.970;2023-12-20T03:49:30;6.93;;;0.90;;
80748;SDS011;70145;53.746;9.970;2023-12-20T03:51:55;4.63;;;1.23;;
80748;SDS011;70145;53.746;9.970;2023-12-20T03:54:21;7.03;;;1.10;;
80748;SDS011;70145;53.746;9.970;2023-12-20T03:56:46;5.38;;;1.08;;
80748;SDS011;70145;53.746;9.970;2023-12-20T03:59:11;3.97;;;0.93;;
80748;SDS011;70145;53.746;9.970;2023-12-20T04:01:37;7.10;;;1.10;;
80748;SDS011;70145;53.746;9.970;2023-12-20T04:04:05;4.13;;;1.00;;
80748;SDS011;70145;53.746;9.970;2023-12-20T04:06:31;7.78;;;1.08;;
80748;SDS011;70145;53.746;9.970;2023-12-20T04:08:56;4.72;;;0.75;;
80748;SDS011;70145;53.746;9.970;2023-12-20T04:11:21;6.57;;;1.43;;
80748;SDS011;70145;53.746;9.970;2023-12-20T04:13:47;3.77;;;0.80;;
80748;SDS011;70145;53.746;9.970;2023-12-20T04:16:12;5.10;;;0.60;;
80748;SDS011;70145;53.746;9.970;2023-12-20T04:18:37;4.80;;;0.70;;
80748;SDS011;70145;53.746;9.970;2023-12-20T04:21:03;6.95;;;0.90;;
80748;SDS011;70145;53.746;9.970;2023-12-20T04:23:28;6.65;;;1.23;;
80748;SDS011;70145;53.746;9.970;2023-12-20T04:25:54;3.03;;;0.53;;
80748;SDS011;70145;53.746;9.970;2023-12-20T04:28:19;4.90;;;0.80;;
80748;SDS011;70145;53.746;9.970;2023-12-20T04:30:44;3.87;;;0.73;;
80748;SDS011;70145;53.746;9.970;2023-12-20T04:33:10;7.43;;;1.07;;
80748;SDS011;70145;53.746;9.970;2023-12-20T04:35:35;5.57;;;1.53;;
80748;SDS011;70145;53.746;9.970;2023-12-20T04:38:00;7.10;;;1.23;;
80748;SDS011;70145;53.746;9.970;2023-12-20T04:40:25;3.80;;;1.30;;
80748;SDS011;70145;53.746;9.970;2023-12-20T04:42:51;6.50;;;0.95;;
80748;SDS011;70145;53.746;9.970;2023-12-20T04:45:16;9.63;;;1.30;;
80748;SDS011;70145;53.746;9.970;2023-12-20T04:47:42;5.38;;;0.80;;
80748;SDS011;70145;53.746;9.970;2023-12-20T04:50:07;6.55;;;0.90;;
80748;SDS011;70145;53.746;9.970;2023-12-20T04:52:33;5.47;;;1.27;;
80748;SDS011;70145;53.746;9.970;2023-12-20T04:54:58;5.85;;;0.90;;
80748;SDS011;70145;53.746;9.970;2023-12-20T04:57:24;3.70;;;1.00;;
80748;SDS011;70145;53.746;9.970;2023-12-20T04:59:49;3.23;;;0.83;;
80748;SDS011;70145;53.746;9.970;2023-12-20T05:02:15;7.00;;;1.20;;
80748;SDS011;70145;53.746;9.970;2023-12-20T05:04:40;6.53;;;1.40;;
80748;SDS011;70145;53.746;9.970;2023-12-20T05:07:06;9.45;;;1.13;;
80748;SDS011;70145;53.746;9.970;2023-12-20T05:09:31;4.23;;;1.10;;
80748;SDS011;70145;53.746;9.970;2023-12-20T05:11:57;9.98;;;1.42;;
80748;SDS011;70145;53.746;9.970;2023-12-20T05:14:22;3.00;;;0.70;;
80748;SDS011;70145;53.746;9.970;2023-12-20T05:16:47;7.82;;;1.15;;
80748;SDS011;70145;53.746;9.970;2023-12-20T05:19:12;8.00;;;1.10;;
80748;SDS011;70145;53.746;9.970;2023-12-20T05:21:39;3.63;;;0.75;;
80748;SDS011;70145;53.746;9.970;2023-12-20T05:24:04;4.68;;;0.95;;
80748;SDS011;70145;53.746;9.970;2023-12-20T05:26:30;5.93;;;1.40;;
80748;SDS011;70145;53.746;9.970;2023-12-20T05:28:55;7.32;;;1.17;;
80748;SDS011;70145;53.746;9.970;2023-12-20T05:31:21;5.83;;;0.80;;
80748;SDS011;70145;53.746;9.970;2023-12-20T05:33:46;8.07;;;1.23;;
80748;SDS011;70145;53.746;9.970;2023-12-20T05:36:11;7.70;;;1.13;;
80748;SDS011;70145;53.746;9.970;2023-12-20T05:38:38;3.38;;;1.17;;
80748;SDS011;70145;53.746;9.970;2023-12-20T05:41:04;4.57;;;1.00;;
80748;SDS011;70145;53.746;9.970;2023-12-20T05:43:29;5.43;;;1.00;;
80748;SDS011;70145;53.746;9.970;2023-12-20T05:45:54;7.00;;;1.60;;
80748;SDS011;70145;53.746;9.970;2023-12-20T05:48:20;4.60;;;1.00;;
80748;SDS011;70145;53.746;9.970;2023-12-20T05:50:45;6.87;;;1.23;;
80748;SDS011;70145;53.746;9.970;2023-12-20T05:53:10;2.77;;;1.30;;
80748;SDS011;70145;53.746;9.970;2023-12-20T05:55:35;3.90;;;1.17;;
80748;SDS011;70145;53.746;9.970;2023-12-20T05:58:01;3.47;;;0.80;;
80748;SDS011;70145;53.746;9.970;2023-12-20T06:00:26;3.77;;;1.00;;
80748;SDS011;70145;53.746;9.970;2023-12-20T06:02:51;5.07;;;1.10;;
80748;SDS011;70145;53.746;9.970;2023-12-20T06:05:16;5.20;;;1.00;;
80748;SDS011;70145;53.746;9.970;2023-12-20T06:07:42;10.00;;;1.93;;
80748;SDS011;70145;53.746;9.970;2023-12-20T06:10:07;6.77;;;1.33;;
80748;SDS011;70145;53.746;9.970;2023-12-20T06:12:33;6.95;;;1.17;;
80748;SDS011;70145;53.746;9.970;2023-12-20T06:15:00;3.95;;;1.08;;
80748;SDS011;70145;53.746;9.970;2023-12-20T06:17:26;4.95;;;0.88;;
80748;SDS011;70145;53.746;9.970;2023-12-20T06:19:51;8.48;;;1.00;;
80748;SDS011;70145;53.746;9.970;2023-12-20T06:22:16;8.60;;;1.27;;
80748;SDS011;70145;53.746;9.970;2023-12-20T06:24:41;5.17;;;1.10;;
80748;SDS011;70145;53.746;9.970;2023-12-20T06:27:07;8.77;;;1.70;;
80748;SDS011;70145;53.746;9.970;2023-12-20T06:29:32;4.70;;;1.43;;
80748;SDS011;70145;53.746;9.970;2023-12-20T06:31:57;7.88;;;1.70;;
80748;SDS011;70145;53.746;9.970;2023-12-20T06:34:23;6.93;;;1.63;;
80748;SDS011;70145;53.746;9.970;2023-12-20T06:36:48;3.93;;;0.97;;
80748;SDS011;70145;53.746;9.970;2023-12-20T06:39:13;7.43;;;1.70;;
80748;SDS011;70145;53.746;9.970;2023-12-20T06:41:39;10.30;;;1.80;;
80748;SDS011;70145;53.746;9.970;2023-12-20T06:44:04;7.72;;;1.42;;
80748;SDS011;70145;53.746;9.970;2023-12-20T06:46:30;6.60;;;1.33;;
80748;SDS011;70145;53.746;9.970;2023-12-20T06:48:55;10.10;;;1.60;;
80748;SDS011;70145;53.746;9.970;2023-12-20T06:51:20;6.60;;;1.65;;
80748;SDS011;70145;53.746;9.970;2023-12-20T06:53:45;6.35;;;1.45;;
80748;SDS011;70145;53.746;9.970;2023-12-20T06:56:11;6.72;;;1.55;;
80748;SDS011;70145;53.746;9.970;2023-12-20T06:58:37;7.55;;;1.42;;
80748;SDS011;70145;53.746;9.970;2023-12-20T07:01:03;5.03;;;1.20;;
80748;SDS011;70145;53.746;9.970;2023-12-20T07:03:29;7.18;;;1.40;;
80748;SDS011;70145;53.746;9.970;2023-12-20T07:05:54;13.03;;;1.90;;
80748;SDS011;70145;53.746;9.970;2023-12-20T07:08:20;6.97;;;0.90;;
80748;SDS011;70145;53.746;9.970;2023-12-20T07:10:45;10.00;;;1.63;;
80748;SDS011;70145;53.746;9.970;2023-12-20T07:13:10;10.88;;;1.58;;
80748;SDS011;70145;53.746;9.970;2023-12-20T07:15:35;7.95;;;1.13;;
80748;SDS011;70145;53.746;9.970;2023-12-20T07:18:02;6.10;;;1.15;;
80748;SDS011;70145;53.746;9.970;2023-12-20T07:20:27;10.25;;;1.73;;
80748;SDS011;70145;53.746;9.970;2023-12-20T07:22:53;7.63;;;1.40;;
80748;SDS011;70145;53.746;9.970;2023-12-20T07:25:18;12.52;;;1.70;;
80748;SDS011;70145;53.746;9.970;2023-12-20T07:27:45;13.75;;;1.55;;
80748;SDS011;70145;53.746;9.970;2023-12-20T07:30:10;9.67;;;1.70;;
80748;SDS011;70145;53.746;9.970;2023-12-20T07:32:36;7.93;;;1.40;;
80748;SDS011;70145;53.746;9.970;2023-12-20T07:35:01;12.20;;;2.07;;
80748;SDS011;70145;53.746;9.970;2023-12-20T07:37:27;7.57;;;1.00;;
80748;SDS011;70145;53.746;9.970;2023-12-20T07:39:53;7.20;;;1.30;;
80748;SDS011;70145;53.746;9.970;2023-12-20T07:42:18;8.27;;;1.50;;
80748;SDS011;70145;53.746;9.970;2023-12-20T07:44:43;11.80;;;1.80;;
80748;SDS011;70145;53.746;9.970;2023-12-20T07:47:09;10.90;;;1.60;;
80748;SDS011;70145;53.746;9.970;2023-12-20T07:49:34;8.13;;;1.52;;
80748;SDS011;70145;53.746;9.970;2023-12-20T07:52:00;6.32;;;1.70;;
80748;SDS011;70145;53.746;9.970;2023-12-20T07:54:25;15.68;;;2.65;;
80748;SDS011;70145;53.746;9.970;2023-12-20T07:56:50;11.00;;;1.47;;
80748;SDS011;70145;53.746;9.970;2023-12-20T07:59:15;12.43;;;2.00;;
80748;SDS011;70145;53.746;9.970;2023-12-20T08:01:41;13.57;;;2.13;;
80748;SDS011;70145;53.746;9.970;2023-12-20T08:04:07;11.65;;;2.35;;
80748;SDS011;70145;53.746;9.970;2023-12-20T08:06:33;7.95;;;1.50;;
80748;SDS011;70145;53.746;9.970;2023-12-20T08:08:58;8.25;;;1.40;;
80748;SDS011;70145;53.746;9.970;2023-12-20T08:11:23;6.97;;;1.40;;
80748;SDS011;70145;53.746;9.970;2023-12-20T08:13:48;8.13;;;1.50;;
80748;SDS011;70145;53.746;9.970;2023-12-20T08:16:14;5.60;;;1.13;;
80748;SDS011;70145;53.746;9.970;2023-12-20T08:18:40;8.00;;;1.25;;
80748;SDS011;70145;53.746;9.970;2023-12-20T08:21:06;7.50;;;1.25;;
80748;SDS011;70145;53.746;9.970;2023-12-20T08:23:34;6.65;;;1.30;;
80748;SDS011;70145;53.746;9.970;2023-12-20T08:26:03;7.82;;;1.40;;
80748;SDS011;70145;53.746;9.970;2023-12-20T08:28:32;8.02;;;1.42;;
80748;SDS011;70145;53.746;9.970;2023-12-20T08:30:58;10.68;;;1.55;;
80748;SDS011;70145;53.746;9.970;2023-12-20T08:33:23;7.90;;;1.80;;
80748;SDS011;70145;53.746;9.970;2023-12-20T08:35:49;9.00;;;1.73;;
80748;SDS011;70145;53.746;9.970;2023-12-20T08:38:14;6.97;;;1.67;;
80748;SDS011;70145;53.746;9.970;2023-12-20T08:40:39;6.93;;;1.30;;
80748;SDS011;70145;53.746;9.970;2023-12-20T08:43:05;9.40;;;1.70;;
80748;SDS011;70145;53.746;9.970;2023-12-20T08:45:30;8.40;;;1.35;;
80748;SDS011;70145;53.746;9.970;2023-12-20T08:47:55;11.30;;;1.88;;
80748;SDS011;70145;53.746;9.970;2023-12-20T08:50:21;9.10;;;1.53;;
80748;SDS011;70145;53.746;9.970;2023-12-20T08:52:46;8.05;;;1.27;;
80748;SDS011;70145;53.746;9.970;2023-12-20T08:55:11;7.18;;;1.23;;
80748;SDS011;70145;53.746;9.970;2023-12-20T08:57:37;6.10;;;1.00;;
80748;SDS011;70145;53.746;9.970;2023-12-20T09:00:03;10.75;;;1.85;;
80748;SDS011;70145;53.746;9.970;2023-12-20T09:02:29;11.88;;;1.60;;
80748;SDS011;70145;53.746;9.970;2023-12-20T09:04:54;5.87;;;1.30;;
80748;SDS011;70145;53.746;9.970;2023-12-20T09:07:26;7.47;;;1.23;;
80748;SDS011;70145;53.746;9.970;2023-12-20T09:09:54;4.03;;;1.00;;
80748;SDS011;70145;53.746;9.970;2023-12-20T09:12:20;6.30;;;0.80;;
80748;SDS011;70145;53.746;9.970;2023-12-20T09:14:49;3.80;;;0.80;;
80748;SDS011;70145;53.746;9.970;2023-12-20T09:17:15;3.15;;;0.63;;
80748;SDS011;70145;53.746;9.970;2023-12-20T09:19:41;0.95;;;0.13;;
80748;SDS011;70145;53.746;9.970;2023-12-20T09:22:08;1.75;;;0.08;;
80748;SDS011;70145;53.746;9.970;2023-12-20T09:24:34;3.22;;;0.43;;
80748;SDS011;70145;53.746;9.970;2023-12-20T09:26:59;1.35;;;0.20;;
80748;SDS011;70145;53.746;9.970;2023-12-20T09:29:25;1.90;;;0.23;;
80748;SDS011;70145;53.746;9.970;2023-12-20T09:31:50;0.77;;;0.27;;
80748;SDS011;70145;53.746;9.970;2023-12-20T09:34:15;1.75;;;0.22;;
80748;SDS011;70145;53.746;9.970;2023-12-20T09:36:42;0.98;;;0.22;;
80748;SDS011;70145;53.746;9.970;2023-12-20T09:39:11;0.30;;;0.00;;
80748;SDS011;70145;53.746;9.970;2023-12-20T09:41:38;1.35;;;0.20;;
80748;SDS011;70145;53.746;9.970;2023-12-20T09:44:12;1.10;;;0.30;;
80748;SDS011;70145;53.746;9.970;2023-12-20T09:46:44;0.50;;;0.05;;
80748;SDS011;70145;53.746;9.970;2023-12-20T09:49:14;0.80;;;0.20;;
80748;SDS011;70145;53.746;9.970;2023-12-20T09:51:42;0.68;;;0.20;;
80748;SDS011;70145;53.746;9.970;2023-12-20T09:54:07;1.33;;;0.10;;
80748;SDS011;70145;53.746;9.970;2023-12-20T09:56:34;0.98;;;0.30;;
80748;SDS011;70145;53.746;9.970;2023-12-20T09:58:59;0.50;;;0.10;;
80748;SDS011;70145;53.746;9.970;2023-12-20T10:01:25;1.35;;;0.30;;
80748;SDS011;70145;53.746;9.970;2023-12-20T10:03:51;0.88;;;0.10;;
80748;SDS011;70145;53.746;9.970;2023-12-20T10:06:20;0.40;;;0.30;;
80748;SDS011;70145;53.746;9.970;2023-12-20T10:08:47;2.30;;;0.60;;
80748;SDS011;70145;53.746;9.970;2023-12-20T10:11:12;2.65;;;0.47;;
80748;SDS011;70145;53.746;9.970;2023-12-20T10:13:42;0.73;;;0.22;;
80748;SDS011;70145;53.746;9.970;2023-12-20T10:16:08;2.88;;;0.35;;
80748;SDS011;70145;53.746;9.970;2023-12-20T10:18:33;0.82;;;0.10;;
80748;SDS011;70145;53.746;9.970;2023-12-20T10:20:59;0.82;;;0.60;;
80748;SDS011;70145;53.746;9.970;2023-12-20T10:23:25;1.90;;;0.50;;
80748;SDS011;70145;53.746;9.970;2023-12-20T10:26:01;2.65;;;0.50;;
80748;SDS011;70145;53.746;9.970;2023-12-20T10:28:26;1.80;;;0.40;;
80748;SDS011;70145;53.746;9.970;2023-12-20T10:30:57;2.22;;;0.75;;
80748;SDS011;70145;53.746;9.970;2023-12-20T10:33:26;1.60;;;0.32;;
80748;SDS011;70145;53.746;9.970;2023-12-20T10:35:53;1.63;;;0.30;;
80748;SDS011;70145;53.746;9.970;2023-12-20T10:38:19;4.72;;;0.40;;
80748;SDS011;70145;53.746;9.970;2023-12-20T10:40:45;2.13;;;0.30;;
80748;SDS011;70145;53.746;9.970;2023-12-20T10:43:11;3.47;;;0.47;;
80748;SDS011;70145;53.746;9.970;2023-12-20T10:45:37;2.05;;;0.55;;
80748;SDS011;70145;53.746;9.970;2023-12-20T10:48:02;1.63;;;0.30;;
80748;SDS011;70145;53.746;9.970;2023-12-20T10:50:28;6.32;;;0.70;;
80748;SDS011;70145;53.746;9.970;2023-12-20T10:52:55;4.07;;;0.57;;
80748;SDS011;70145;53.746;9.970;2023-12-20T10:55:21;5.25;;;0.60;;
80748;SDS011;70145;53.746;9.970;2023-12-20T10:57:47;1.67;;;0.60;;
80748;SDS011;70145;53.746;9.970;2023-12-20T11:00:16;4.85;;;0.57;;
80748;SDS011;70145;53.746;9.970;2023-12-20T11:02:43;2.28;;;0.35;;
80748;SDS011;70145;53.746;9.970;2023-12-20T11:08:12;4.78;;;0.52;;
80748;SDS011;70145;53.746;9.970;2023-12-20T11:10:44;2.83;;;0.57;;
80748;SDS011;70145;53.746;9.970;2023-12-20T11:13:16;3.08;;;1.10;;
80748;SDS011;70145;53.746;9.970;2023-12-20T11:15:45;1.92;;;0.55;;
80748;SDS011;70145;53.746;9.970;2023-12-20T11:18:11;1.85;;;0.60;;
80748;SDS011;70145;53.746;9.970;2023-12-20T11:20:37;3.40;;;0.50;;
80748;SDS011;70145;53.746;9.970;2023-12-20T11:23:04;7.38;;;0.80;;
80748;SDS011;70145;53.746;9.970;2023-12-20T11:25:29;3.10;;;0.47;;
80748;SDS011;70145;53.746;9.970;2023-12-20T11:28:08;6.53;;;0.57;;
80748;SDS011;70145;53.746;9.970;2023-12-20T11:30:47;4.35;;;1.30;;
80748;SDS011;70145;53.746;9.970;2023-12-20T11:35:41;4.97;;;1.23;;
80748;SDS011;70145;53.746;9.970;2023-12-20T11:38:07;3.20;;;0.55;;
80748;SDS011;70145;53.746;9.970;2023-12-20T11:40:35;6.88;;;0.82;;
80748;SDS011;70145;53.746;9.970;2023-12-20T11:43:02;4.15;;;0.70;;
80748;SDS011;70145;53.746;9.970;2023-12-20T11:45:28;3.75;;;0.63;;
80748;SDS011;70145;53.746;9.970;2023-12-20T11:47:54;4.90;;;0.73;;
80748;SDS011;70145;53.746;9.970;2023-12-20T11:50:19;4.32;;;1.15;;
80748;SDS011;70145;53.746;9.970;2023-12-20T11:52:46;3.83;;;1.05;;
80748;SDS011;70145;53.746;9.970;2023-12-20T11:55:12;8.63;;;1.55;;
80748;SDS011;70145;53.746;9.970;2023-12-20T11:57:37;4.80;;;1.02;;
80748;SDS011;70145;53.746;9.970;2023-12-20T12:00:03;6.10;;;1.00;;
80748;SDS011;70145;53.746;9.970;2023-12-20T12:02:29;6.80;;;0.90;;
80748;SDS011;70145;53.746;9.970;2023-12-20T12:04:55;7.70;;;1.50;;
80748;SDS011;70145;53.746;9.970;2023-12-20T12:07:21;8.98;;;1.20;;
80748;SDS011;70145;53.746;9.970;2023-12-20T12:09:47;4.53;;;1.30;;
80748;SDS011;70145;53.746;9.970;2023-12-20T12:12:12;6.57;;;1.33;;
80748;SDS011;70145;53.746;9.970;2023-12-20T12:14:38;9.15;;;1.20;;
80748;SDS011;70145;53.746;9.970;2023-12-20T12:17:09;3.55;;;0.68;;
80748;SDS011;70145;53.746;9.970;2023-12-20T12:19:35;7.60;;;2.03;;
80748;SDS011;70145;53.746;9.970;2023-12-20T12:22:05;9.25;;;1.42;;
80748;SDS011;70145;53.746;9.970;2023-12-20T12:24:37;6.30;;;1.20;;
80748;SDS011;70145;53.746;9.970;2023-12-20T12:27:05;11.18;;;1.50;;
80748;SDS011;70145;53.746;9.970;2023-12-20T12:29:31;7.63;;;1.55;;
80748;SDS011;70145;53.746;9.970;2023-12-20T12:31:57;9.37;;;1.83;;
80748;SDS011;70145;53.746;9.970;2023-12-20T12:34:22;8.35;;;1.70;;
80748;SDS011;70145;53.746;9.970;2023-12-20T12:36:48;6.68;;;1.20;;
80748;SDS011;70145;53.746;9.970;2023-12-20T12:39:13;10.73;;;1.80;;
80748;SDS011;70145;53.746;9.970;2023-12-20T12:41:42;9.45;;;1.50;;
80748;SDS011;70145;53.746;9.970;2023-12-20T12:44:07;10.13;;;2.53;;
80748;SDS011;70145;53.746;9.970;2023-12-20T12:46:33;6.07;;;1.65;;
80748;SDS011;70145;53.746;9.970;2023-12-20T12:48:58;9.55;;;1.92;;
80748;SDS011;70145;53.746;9.970;2023-12-20T12:51:23;12.07;;;1.70;;
80748;SDS011;70145;53.746;9.970;2023-12-20T12:53:49;6.55;;;1.38;;
80748;SDS011;70145;53.746;9.970;2023-12-20T12:56:14;7.93;;;1.80;;
80748;SDS011;70145;53.746;9.970;2023-12-20T12:58:40;7.03;;;1.90;;
80748;SDS011;70145;53.746;9.970;2023-12-20T13:01:05;8.90;;;1.57;;
80748;SDS011;70145;53.746;9.970;2023-12-20T13:03:30;7.60;;;1.93;;
80748;SDS011;70145;53.746;9.970;2023-12-20T13:05:56;12.85;;;2.17;;
80748;SDS011;70145;53.746;9.970;2023-12-20T13:08:21;10.83;;;1.80;;
80748;SDS011;70145;53.746;9.970;2023-12-20T13:10:46;10.40;;;1.52;;
80748;SDS011;70145;53.746;9.970;2023-12-20T13:13:12;7.13;;;1.73;;
80748;SDS011;70145;53.746;9.970;2023-12-20T13:15:37;7.43;;;1.53;;
80748;SDS011;70145;53.746;9.970;2023-12-20T13:18:02;9.63;;;1.75;;
80748;SDS011;70145;53.746;9.970;2023-12-20T13:20:29;11.88;;;2.45;;
80748;SDS011;70145;53.746;9.970;2023-12-20T13:22:55;8.98;;;1.45;;
80748;SDS011;70145;53.746;9.970;2023-12-20T13:25:20;7.93;;;1.53;;
80748;SDS011;70145;53.746;9.970;2023-12-20T13:27:45;11.30;;;2.30;;
80748;SDS011;70145;53.746;9.970;2023-12-20T13:30:10;11.80;;;2.13;;
80748;SDS011;70145;53.746;9.970;2023-12-20T13:32:36;7.35;;;1.15;;
80748;SDS011;70145;53.746;9.970;2023-12-20T13:35:02;11.65;;;2.05;;
80748;SDS011;70145;53.746;9.970;2023-12-20T13:37:29;9.70;;;1.55;;
80748;SDS011;70145;53.746;9.970;2023-12-20T13:39:54;8.23;;;1.92;;
80748;SDS011;70145;53.746;9.970;2023-12-20T13:42:19;10.93;;;1.92;;
80748;SDS011;70145;53.746;9.970;2023-12-20T13:44:45;13.45;;;3.08;;
80748;SDS011;70145;53.746;9.970;2023-12-20T13:47:11;6.80;;;1.80;;
80748;SDS011;70145;53.746;9.970;2023-12-20T13:49:37;11.25;;;2.30;;
80748;SDS011;70145;53.746;9.970;2023-12-20T13:52:02;8.73;;;1.80;;
80748;SDS011;70145;53.746;9.970;2023-12-20T13:54:29;9.05;;;2.17;;
80748;SDS011;70145;53.746;9.970;2023-12-20T13:56:54;12.87;;;1.83;;
80748;SDS011;70145;53.746;9.970;2023-12-20T13:59:19;8.37;;;1.50;;
80748;SDS011;70145;53.746;9.970;2023-12-20T14:01:44;12.20;;;1.90;;
80748;SDS011;70145;53.746;9.970;2023-12-20T14:04:10;9.93;;;1.60;;
80748;SDS011;70145;53.746;9.970;2023-12-20T14:06:36;11.07;;;2.53;;
80748;SDS011;70145;53.746;9.970;2023-12-20T14:09:02;11.10;;;2.42;;
80748;SDS011;70145;53.746;9.970;2023-12-20T14:11:28;8.35;;;1.85;;
80748;SDS011;70145;53.746;9.970;2023-12-20T14:13:53;5.30;;;1.48;;
80748;SDS011;70145;53.746;9.970;2023-12-20T14:16:22;11.50;;;2.10;;
80748;SDS011;70145;53.746;9.970;2023-12-20T14:18:48;7.28;;;2.08;;
80748;SDS011;70145;53.746;9.970;2023-12-20T14:21:14;9.43;;;2.20;;
80748;SDS011;70145;53.746;9.970;2023-12-20T14:23:39;6.97;;;1.80;;
80748;SDS011;70145;53.746;9.970;2023-12-20T14:26:07;9.75;;;2.55;;
80748;SDS011;70145;53.746;9.970;2023-12-20T14:28:32;8.30;;;2.03;;
80748;SDS011;70145;53.746;9.970;2023-12-20T14:30:58;13.60;;;2.47;;
80748;SDS011;70145;53.746;9.970;2023-12-20T14:33:23;9.23;;;1.93;;
80748;SDS011;70145;53.746;9.970;2023-12-20T14:35:49;14.70;;;2.35;;
80748;SDS011;70145;53.746;9.970;2023-12-20T14:38:14;10.80;;;1.98;;
80748;SDS011;70145;53.746;9.970;2023-12-20T14:40:40;4.72;;;1.50;;
80748;SDS011;70145;53.746;9.970;2023-12-20T14:43:05;9.73;;;1.50;;